Time;durP1;ratioP1;P1;durP2;ratioP2;P2;SDS_P1;SDS_P2;PMS_P1;PMS_P2;Temp;Humidity;BMP_temperature;BMP_pressure;BME280_temperature;BME280_humidity;BME280_pressure;Samples;Min_cycle;Max_cycle;Signal;HPM_P1;HPM_P2
2022/03/09 00:01:09;;;;;;;5.95;4.70;;;2.90;68.50;;;;;;5113641;28;20114;-79
2022/03/09 00:03:34;;;;;;;10.48;5.38;;;2.90;68.40;;;;;;5113782;28;20054;-78
2022/03/09 00:06:00;;;;;;;8.18;5.25;;;2.90;68.60;;;;;;5113849;28;20047;-78
2022/03/09 00:08:26;;;;;;;8.55;4.85;;;3.00;68.50;;;;;;5113516;28;20522;-78
2022/03/09 00:10:51;;;;;;;9.50;4.85;;;2.90;68.50;;;;;;5113502;28;20044;-78
2022/03/09 00:13:17;;;;;;;7.65;4.95;;;2.90;68.40;;;;;;5113406;28;20181;-79
2022/03/09 00:15:43;;;;;;;7.47;5.35;;;2.90;68.40;;;;;;5113354;28;20043;-79
2022/03/09 00:18:09;;;;;;;8.90;5.57;;;2.90;68.30;;;;;;5096570;28;20039;-78
2022/03/09 00:20:34;;;;;;;7.60;5.10;;;2.90;68.10;;;;;;5113526;28;20036;-78
2022/03/09 00:23:00;;;;;;;7.63;5.13;;;2.90;68.20;;;;;;5113061;28;20381;-78
2022/03/09 00:25:26;;;;;;;8.82;5.65;;;2.90;68.60;;;;;;5113063;28;20052;-79
2022/03/09 00:27:51;;;;;;;8.45;4.78;;;2.90;68.40;;;;;;5113027;28;20040;-78
2022/03/09 00:30:17;;;;;;;9.18;6.45;;;3.00;68.70;;;;;;5096350;28;20062;-78
2022/03/09 00:32:43;;;;;;;8.27;5.57;;;2.90;68.20;;;;;;5079463;28;20032;-78
2022/03/09 00:35:09;;;;;;;8.95;6.05;;;2.90;68.20;;;;;;5096315;28;20032;-77
2022/03/09 00:37:35;;;;;;;10.85;5.85;;;2.90;68.30;;;;;;5113326;28;20494;-78
2022/03/09 00:40:01;;;;;;;6.82;5.22;;;2.90;68.50;;;;;;5113197;28;20088;-79
2022/03/09 00:42:27;;;;;;;10.30;5.53;;;2.80;68.40;;;;;;5096138;28;20073;-78
2022/03/09 00:44:53;;;;;;;8.23;6.50;;;2.80;68.60;;;;;;5113082;28;20516;-78
2022/03/09 00:47:18;;;;;;;7.20;5.20;;;2.80;68.10;;;;;;5112865;28;20044;-78
2022/03/09 00:49:49;;;;;;;7.40;5.60;;;2.80;68.40;;;;;;5079317;28;20043;-78
2022/03/09 00:52:14;;;;;;;7.03;5.15;;;2.80;68.60;;;;;;5096485;28;20510;-79
2022/03/09 00:54:40;;;;;;;10.75;5.55;;;2.80;68.60;;;;;;5113001;28;20039;-78
2022/03/09 00:57:06;;;;;;;7.85;5.82;;;2.70;68.70;;;;;;5112721;28;20031;-78
2022/03/09 00:59:31;;;;;;;7.28;5.57;;;2.70;68.80;;;;;;5113021;28;20149;-78
2022/03/09 01:01:57;;;;;;;10.13;6.55;;;2.70;69.30;;;;;;5095773;28;20039;-78
2022/03/09 01:04:23;;;;;;;9.75;6.60;;;2.80;69.20;;;;;;5095634;28;20122;-78
2022/03/09 01:06:48;;;;;;;10.93;6.53;;;2.70;69.20;;;;;;5095557;28;20100;-78
2022/03/09 01:09:14;;;;;;;9.23;6.05;;;2.60;69.10;;;;;;5112508;28;20040;-78
2022/03/09 01:11:40;;;;;;;9.73;5.40;;;2.60;69.10;;;;;;5112700;28;20036;-78
2022/03/09 01:14:06;;;;;;;9.32;6.45;;;2.60;69.20;;;;;;5095663;28;20047;-79
2022/03/09 01:16:31;;;;;;;8.73;6.18;;;2.60;68.70;;;;;;5095897;28;20071;-78
2022/03/09 01:18:57;;;;;;;11.50;6.43;;;2.50;69.00;;;;;;5095779;28;20043;-78
2022/03/09 01:21:23;;;;;;;13.13;7.43;;;2.50;68.90;;;;;;5095947;28;20130;-78
2022/03/09 01:23:48;;;;;;;8.52;5.82;;;2.50;69.00;;;;;;5112733;28;20475;-78
2022/03/09 01:26:14;;;;;;;12.35;7.03;;;2.40;69.20;;;;;;5112944;28;20040;-78
2022/03/09 01:28:40;;;;;;;9.90;6.30;;;2.40;69.40;;;;;;5095636;28;20092;-78
2022/03/09 01:31:05;;;;;;;10.70;6.85;;;2.40;69.50;;;;;;5112540;28;20085;-79
2022/03/09 01:33:31;;;;;;;10.63;6.70;;;2.40;69.50;;;;;;5079193;28;20095;-79
2022/03/09 01:35:57;;;;;;;8.35;6.20;;;2.40;69.50;;;;;;5095596;28;20430;-78
2022/03/09 01:38:25;;;;;;;9.88;6.35;;;2.30;69.10;;;;;;5112637;28;20088;-78
2022/03/09 01:40:51;;;;;;;9.63;7.80;;;2.30;69.30;;;;;;5112606;28;20475;-79
2022/03/09 01:43:18;;;;;;;11.45;6.72;;;2.20;68.80;;;;;;5112926;28;20042;-78
2022/03/09 01:45:43;;;;;;;9.55;6.80;;;2.20;69.50;;;;;;5112821;28;20395;-78
2022/03/09 01:48:09;;;;;;;9.57;7.15;;;2.10;69.00;;;;;;5112848;28;20043;-78
2022/03/09 01:50:35;;;;;;;9.15;6.57;;;2.10;69.60;;;;;;5112113;28;20047;-78
2022/03/09 01:53:01;;;;;;;10.90;7.30;;;2.20;69.80;;;;;;5095700;28;20044;-79
2022/03/09 01:55:27;;;;;;;9.23;6.35;;;2.10;69.50;;;;;;5112575;28;20043;-78
2022/03/09 01:57:52;;;;;;;11.38;7.10;;;2.10;69.70;;;;;;5112550;28;20391;-78
2022/03/09 02:00:18;;;;;;;9.38;7.10;;;2.10;70.00;;;;;;5112183;28;20122;-78
2022/03/09 02:02:44;;;;;;;10.73;6.60;;;2.10;70.00;;;;;;5078704;28;20036;-77
2022/03/09 02:05:10;;;;;;;11.75;7.05;;;2.10;70.00;;;;;;5112239;28;20118;-78
2022/03/09 02:10:23;;;;;;;10.27;7.28;;;2.10;69.40;;;;;;5112213;28;20135;-78
2022/03/09 02:12:48;;;;;;;13.85;8.43;;;2.10;69.80;;;;;;5112251;28;20056;-78
2022/03/09 02:15:14;;;;;;;19.73;8.75;;;2.10;69.70;;;;;;5129516;28;20093;-78
2022/03/09 02:17:40;;;;;;;13.18;7.43;;;2.10;69.80;;;;;;5112359;28;20075;-78
2022/03/09 02:20:06;;;;;;;10.82;7.22;;;2.00;70.00;;;;;;5111901;28;20453;-79
2022/03/09 02:22:35;;;;;;;11.60;8.00;;;2.00;69.90;;;;;;5115008;28;20104;-78
2022/03/09 02:25:02;;;;;;;14.73;8.40;;;2.00;69.90;;;;;;5116392;28;20047;-78
2022/03/09 02:27:28;;;;;;;11.55;8.27;;;1.90;69.70;;;;;;5115476;28;20526;-78
2022/03/09 02:29:55;;;;;;;12.98;8.10;;;1.90;69.90;;;;;;5115271;28;20043;-78
2022/03/09 02:32:22;;;;;;;12.93;8.07;;;1.90;70.00;;;;;;5115580;28;20046;-78
2022/03/09 02:34:48;;;;;;;14.25;9.18;;;1.80;70.10;;;;;;5098556;28;20044;-78
2022/03/09 02:37:14;;;;;;;11.95;8.45;;;1.80;70.20;;;;;;5098378;28;20032;-79
2022/03/09 02:39:40;;;;;;;14.95;8.70;;;1.70;70.30;;;;;;5115365;28;20073;-78
2022/03/09 02:42:07;;;;;;;12.32;7.88;;;1.70;70.30;;;;;;5098253;28;20040;-78
2022/03/09 02:44:32;;;;;;;11.18;7.72;;;1.70;70.40;;;;;;5098724;28;20414;-78
2022/03/09 02:46:59;;;;;;;11.75;7.78;;;1.70;70.50;;;;;;5098213;28;20043;-78
2022/03/09 02:49:25;;;;;;;12.20;8.80;;;1.70;70.50;;;;;;5115218;28;20098;-78
2022/03/09 02:51:51;;;;;;;14.65;8.77;;;1.70;70.50;;;;;;5098613;28;20465;-79
2022/03/09 02:54:17;;;;;;;13.18;8.10;;;1.70;70.60;;;;;;5098196;28;20039;-78
2022/03/09 02:56:43;;;;;;;14.75;8.57;;;1.60;70.60;;;;;;5115080;28;20096;-78
2022/03/09 02:59:09;;;;;;;12.90;8.05;;;1.60;70.60;;;;;;5098203;28;20085;-78
2022/03/09 03:01:35;;;;;;;11.43;7.93;;;1.60;70.70;;;;;;5114962;28;20043;-77
2022/03/09 03:04:01;;;;;;;14.70;8.75;;;1.60;70.60;;;;;;5114838;28;20044;-78
2022/03/09 03:06:27;;;;;;;13.80;8.63;;;1.50;70.80;;;;;;5115190;28;20043;-78
2022/03/09 03:08:52;;;;;;;12.73;8.85;;;1.50;70.90;;;;;;5097936;28;20093;-79
2022/03/09 03:11:18;;;;;;;13.27;9.20;;;1.40;70.80;;;;;;5097922;28;20036;-78
2022/03/09 03:13:45;;;;;;;12.75;8.25;;;1.40;71.00;;;;;;5097401;28;20052;-78
2022/03/09 03:16:11;;;;;;;11.90;8.05;;;1.40;71.20;;;;;;5114654;28;20067;-78
2022/03/09 03:18:37;;;;;;;15.10;8.50;;;1.40;71.10;;;;;;5097867;28;20039;-79
2022/03/09 03:21:04;;;;;;;11.40;8.05;;;1.30;71.20;;;;;;5115007;28;20521;-78
2022/03/09 03:23:33;;;;;;;11.57;8.50;;;1.30;71.30;;;;;;5097462;28;20495;-79
2022/03/09 03:26:00;;;;;;;12.30;8.07;;;1.30;71.10;;;;;;5080808;28;20075;-78
2022/03/09 03:28:26;;;;;;;11.38;8.13;;;1.30;71.10;;;;;;5114238;28;20050;-79
2022/03/09 03:30:52;;;;;;;10.50;7.43;;;1.40;71.10;;;;;;5114839;28;20028;-79
2022/03/09 03:33:19;;;;;;;12.30;8.45;;;1.40;71.20;;;;;;5097538;28;20043;-78
2022/03/09 03:35:46;;;;;;;12.57;8.25;;;1.50;71.30;;;;;;5114368;28;20122;-79
2022/03/09 03:38:13;;;;;;;11.10;8.07;;;1.50;71.00;;;;;;5114224;28;20071;-78
2022/03/09 03:40:38;;;;;;;11.57;7.85;;;1.50;70.80;;;;;;5114588;28;20039;-79
2022/03/09 03:43:06;;;;;;;12.82;8.23;;;1.50;71.10;;;;;;5097110;28;20101;-79
2022/03/09 03:45:33;;;;;;;16.70;8.75;;;1.50;71.10;;;;;;5114147;28;20039;-78
2022/03/09 03:47:58;;;;;;;13.38;9.35;;;1.40;71.10;;;;;;5114386;28;20376;-79
2022/03/09 03:50:24;;;;;;;11.68;7.57;;;1.40;71.20;;;;;;5113928;28;20065;-78
2022/03/09 03:52:51;;;;;;;12.82;8.73;;;1.30;71.40;;;;;;5114041;28;20039;-78
2022/03/09 03:55:16;;;;;;;13.57;8.70;;;1.30;71.50;;;;;;5113787;28;20088;-78
2022/03/09 03:57:42;;;;;;;12.85;8.20;;;1.30;71.50;;;;;;5113856;28;20031;-79
2022/03/09 04:00:10;;;;;;;14.57;9.02;;;1.30;71.70;;;;;;5113993;28;20061;-79
2022/03/09 04:02:36;;;;;;;13.20;8.75;;;1.20;71.80;;;;;;5113980;28;20047;-78
2022/03/09 04:05:02;;;;;;;13.50;8.45;;;1.20;72.00;;;;;;5096718;28;20039;-78
2022/03/09 04:07:28;;;;;;;12.07;8.07;;;1.20;72.00;;;;;;5096892;28;20100;-78
2022/03/09 04:09:54;;;;;;;11.65;8.02;;;1.20;72.10;;;;;;5113871;28;20043;-78
2022/03/09 04:12:20;;;;;;;12.95;9.63;;;1.20;72.10;;;;;;5113686;28;20043;-78
2022/03/09 04:14:46;;;;;;;14.52;9.27;;;1.20;72.20;;;;;;5113930;28;20603;-78
2022/03/09 04:17:12;;;;;;;11.52;8.30;;;1.10;72.20;;;;;;5113503;28;20122;-79
2022/03/09 04:19:38;;;;;;;12.75;8.30;;;1.10;72.30;;;;;;5079724;28;20122;-79
2022/03/09 04:22:04;;;;;;;12.82;8.20;;;1.10;72.40;;;;;;5096934;28;20104;-78
2022/03/09 04:24:29;;;;;;;12.90;8.30;;;1.10;72.40;;;;;;5113377;28;20039;-79
2022/03/09 04:26:55;;;;;;;16.65;10.15;;;1.10;72.40;;;;;;5113337;28;20066;-78
2022/03/09 04:29:21;;;;;;;16.65;9.73;;;1.10;72.50;;;;;;5113507;28;20075;-78
2022/03/09 04:31:46;;;;;;;13.20;9.32;;;1.10;72.60;;;;;;5113488;28;20046;-78
2022/03/09 04:34:12;;;;;;;13.20;8.73;;;1.10;72.30;;;;;;5113477;28;20407;-79
2022/03/09 04:36:38;;;;;;;15.73;9.23;;;1.00;72.50;;;;;;5113313;28;20032;-78
2022/03/09 04:39:05;;;;;;;11.27;8.38;;;1.00;72.80;;;;;;5096005;28;20044;-78
2022/03/09 04:41:30;;;;;;;13.57;9.18;;;1.00;72.70;;;;;;5113418;28;20047;-79
2022/03/09 04:43:56;;;;;;;13.07;8.35;;;1.00;72.80;;;;;;5095853;28;20130;-79
2022/03/09 04:46:23;;;;;;;14.25;8.95;;;1.00;73.00;;;;;;5096099;28;20035;-78
2022/03/09 04:48:49;;;;;;;13.32;8.43;;;1.00;72.90;;;;;;5095867;28;20613;-78
2022/03/09 04:51:15;;;;;;;11.77;8.02;;;1.00;72.70;;;;;;5113004;28;20123;-79
2022/03/09 04:53:41;;;;;;;13.25;8.35;;;1.00;72.70;;;;;;5096019;28;20119;-78
2022/03/09 04:56:07;;;;;;;17.67;8.70;;;1.00;72.90;;;;;;5113111;28;20184;-78
2022/03/09 04:58:32;;;;;;;15.23;10.05;;;1.00;73.00;;;;;;5113142;28;20500;-78
2022/03/09 05:00:58;;;;;;;12.48;9.05;;;0.90;72.90;;;;;;5113460;28;20042;-78
2022/03/09 05:03:24;;;;;;;15.23;9.57;;;0.90;73.10;;;;;;5112821;28;20400;-78
2022/03/09 05:05:52;;;;;;;12.60;9.25;;;0.80;73.20;;;;;;5096582;28;20050;-78
2022/03/09 05:08:18;;;;;;;13.23;9.65;;;0.70;73.20;;;;;;5112965;28;20464;-79
2022/03/09 05:10:44;;;;;;;13.25;8.52;;;0.70;73.30;;;;;;5095708;28;20047;-78
2022/03/09 05:13:09;;;;;;;11.70;8.15;;;0.70;73.30;;;;;;5113015;28;20109;-78
2022/03/09 05:15:35;;;;;;;15.98;8.85;;;0.70;73.50;;;;;;5096120;28;20039;-78
2022/03/09 05:18:01;;;;;;;12.68;8.88;;;0.60;73.50;;;;;;5112668;28;20039;-79
2022/03/09 05:20:27;;;;;;;13.40;9.35;;;0.60;73.60;;;;;;5112863;28;20043;-78
2022/03/09 05:22:52;;;;;;;12.50;7.97;;;0.70;73.60;;;;;;5095828;28;20509;-78
2022/03/09 05:25:19;;;;;;;15.00;8.98;;;0.70;73.50;;;;;;5095624;28;20052;-79
2022/03/09 05:27:45;;;;;;;13.27;8.68;;;0.70;73.20;;;;;;5112560;28;20045;-79
2022/03/09 05:30:11;;;;;;;12.80;8.70;;;0.70;73.50;;;;;;5095700;28;20343;-79
2022/03/09 05:32:38;;;;;;;13.25;8.60;;;0.60;72.90;;;;;;5112670;28;20131;-79
2022/03/09 05:35:05;;;;;;;13.88;9.65;;;0.70;73.40;;;;;;5112469;28;20067;-78
2022/03/09 05:37:42;;;;;;;14.50;8.98;;;0.70;73.50;;;;;;5112671;28;20093;-79
2022/03/09 05:40:09;;;;;;;12.88;8.95;;;0.60;73.40;;;;;;5112725;28;20386;-79
2022/03/09 05:42:36;;;;;;;13.57;9.32;;;0.60;73.50;;;;;;5095952;28;20086;-79
2022/03/09 05:45:03;;;;;;;17.52;10.07;;;0.60;73.70;;;;;;5112815;28;20450;-80
2022/03/09 05:47:32;;;;;;;13.07;8.55;;;0.50;73.90;;;;;;5112557;28;20092;-79
2022/03/09 05:49:58;;;;;;;14.90;9.18;;;0.60;74.10;;;;;;5095251;28;20601;-78
2022/03/09 05:52:24;;;;;;;14.55;9.32;;;0.60;74.10;;;;;;5112762;28;20166;-79
2022/03/09 05:54:50;;;;;;;15.70;9.13;;;0.60;74.50;;;;;;5112245;28;20123;-78
2022/03/09 05:57:20;;;;;;;15.25;9.73;;;0.60;74.20;;;;;;5115009;28;20122;-79
2022/03/09 05:59:46;;;;;;;14.27;8.98;;;0.60;74.20;;;;;;5098910;28;20039;-79
2022/03/09 06:02:12;;;;;;;14.77;9.25;;;0.60;74.10;;;;;;5115279;28;20046;-78
2022/03/09 06:04:38;;;;;;;14.32;9.45;;;0.60;73.90;;;;;;5115781;28;20048;-78
2022/03/09 06:07:04;;;;;;;14.75;9.38;;;0.60;74.00;;;;;;5116542;28;20395;-79
2022/03/09 06:09:30;;;;;;;13.95;9.30;;;0.60;73.80;;;;;;5116157;28;20039;-78
2022/03/09 06:11:56;;;;;;;19.05;11.75;;;0.60;73.80;;;;;;5098863;28;20039;-79
2022/03/09 06:14:22;;;;;;;15.40;9.95;;;0.50;73.60;;;;;;5098564;28;20054;-79
2022/03/09 06:16:48;;;;;;;14.88;9.60;;;0.50;73.70;;;;;;5099329;28;20491;-79
2022/03/09 06:19:17;;;;;;;13.07;8.65;;;0.50;73.60;;;;;;5115922;28;20454;-79
2022/03/09 06:21:43;;;;;;;13.93;9.07;;;0.50;73.90;;;;;;5117555;28;20043;-78
2022/03/09 06:24:09;;;;;;;73.07;56.40;;;0.50;73.80;;;;;;5115798;28;20560;-78
2022/03/09 06:26:36;;;;;;;29.55;26.45;;;0.50;73.90;;;;;;5098742;28;20035;-78
2022/03/09 06:29:05;;;;;;;28.92;25.00;;;0.50;73.90;;;;;;5099156;28;20491;-78
2022/03/09 06:31:31;;;;;;;17.60;10.60;;;0.50;73.90;;;;;;5115391;28;20039;-78
2022/03/09 06:33:57;;;;;;;15.80;11.70;;;0.50;73.60;;;;;;5115455;28;20123;-77
2022/03/09 06:36:23;;;;;;;16.48;11.00;;;0.50;73.80;;;;;;5115922;28;20122;-78
2022/03/09 06:38:49;;;;;;;33.95;22.80;;;0.60;73.90;;;;;;5115569;28;20395;-77
2022/03/09 06:41:15;;;;;;;21.88;16.13;;;0.60;74.00;;;;;;5115250;28;20040;-78
2022/03/09 06:43:41;;;;;;;17.38;11.45;;;0.60;74.00;;;;;;5098210;28;20078;-78
2022/03/09 06:46:06;;;;;;;22.13;18.27;;;0.60;73.90;;;;;;5115347;28;20044;-77
2022/03/09 06:48:32;;;;;;;24.23;19.40;;;0.60;74.20;;;;;;5115581;28;20039;-78
2022/03/09 06:50:58;;;;;;;16.73;11.73;;;0.60;74.10;;;;;;5115443;28;20514;-79
2022/03/09 06:53:25;;;;;;;17.02;11.10;;;0.60;74.20;;;;;;5098187;28;20120;-78
2022/03/09 06:55:50;;;;;;;16.23;10.38;;;0.60;74.20;;;;;;5081031;28;20040;-78
2022/03/09 06:58:16;;;;;;;15.30;11.95;;;0.70;74.10;;;;;;5132471;27;20050;-78
2022/03/09 07:00:42;;;;;;;17.63;13.07;;;0.70;74.20;;;;;;5115124;28;20040;-78
2022/03/09 07:03:08;;;;;;;16.17;11.43;;;0.70;74.20;;;;;;5114948;28;20039;-78
2022/03/09 07:05:34;;;;;;;17.38;11.00;;;0.70;74.40;;;;;;5097573;28;20042;-78
2022/03/09 07:08:00;;;;;;;15.60;10.27;;;0.70;74.50;;;;;;5097203;28;20059;-79
2022/03/09 07:10:26;;;;;;;15.18;10.45;;;0.70;74.50;;;;;;5096990;28;20438;-78
2022/03/09 07:12:52;;;;;;;15.98;10.82;;;0.70;74.60;;;;;;5114107;28;20058;-78
2022/03/09 07:15:18;;;;;;;15.02;9.88;;;0.80;74.80;;;;;;5119679;27;20031;-78
2022/03/09 07:17:45;;;;;;;16.50;10.23;;;0.80;74.80;;;;;;5114286;28;20044;-78
2022/03/09 07:20:12;;;;;;;14.32;9.73;;;0.90;74.80;;;;;;5097168;28;20047;-78
2022/03/09 07:22:39;;;;;;;14.82;10.02;;;1.00;74.90;;;;;;5114243;28;20040;-79
2022/03/09 07:25:05;;;;;;;15.43;9.23;;;1.00;74.90;;;;;;5116271;28;20086;-78
2022/03/09 07:27:31;;;;;;;15.50;9.60;;;1.00;74.80;;;;;;5115274;28;20074;-80
2022/03/09 07:29:57;;;;;;;13.23;8.88;;;1.10;74.90;;;;;;5115924;27;20093;-80
2022/03/09 07:32:22;;;;;;;12.88;9.55;;;1.10;74.80;;;;;;5119822;27;20039;-80
2022/03/09 07:34:48;;;;;;;15.65;10.38;;;1.20;74.70;;;;;;5111308;27;20054;-81
2022/03/09 07:37:14;;;;;;;14.00;9.77;;;1.20;74.50;;;;;;5110104;27;20043;-81
2022/03/09 07:39:39;;;;;;;15.02;10.18;;;1.40;74.50;;;;;;5108446;27;20053;-80
2022/03/09 07:42:05;;;;;;;12.25;9.10;;;1.40;74.20;;;;;;5106721;27;20039;-80
2022/03/09 07:44:31;;;;;;;14.25;10.20;;;1.50;73.80;;;;;;5103175;27;20082;-80
2022/03/09 07:46:57;;;;;;;12.68;9.48;;;1.50;73.80;;;;;;5117630;27;20495;-80
2022/03/09 07:49:23;;;;;;;14.60;9.50;;;1.60;73.40;;;;;;5093295;27;20073;-80
2022/03/09 07:51:49;;;;;;;15.15;9.10;;;1.70;73.10;;;;;;5115771;27;20126;-80
2022/03/09 07:54:16;;;;;;;14.88;9.68;;;1.80;72.80;;;;;;5103901;27;20043;-80
2022/03/09 07:56:42;;;;;;;12.90;9.05;;;1.90;72.30;;;;;;5110054;27;20047;-80
2022/03/09 07:59:08;;;;;;;12.48;9.02;;;2.10;72.50;;;;;;5117869;27;20410;-80
2022/03/09 08:01:34;;;;;;;14.00;9.35;;;2.10;71.90;;;;;;5110067;27;20048;-77
2022/03/09 08:04:00;;;;;;;14.25;8.95;;;2.20;72.30;;;;;;5119464;27;20507;-80
2022/03/09 08:06:26;;;;;;;15.43;10.07;;;2.40;72.20;;;;;;5097355;27;20082;-80
2022/03/09 08:08:52;;;;;;;14.75;9.82;;;2.50;71.60;;;;;;5110547;27;20566;-78
2022/03/09 08:11:17;;;;;;;14.73;9.07;;;2.60;71.00;;;;;;5101423;27;20035;-79
2022/03/09 08:13:43;;;;;;;14.30;10.75;;;2.70;71.10;;;;;;5120325;27;20063;-80
2022/03/09 08:16:09;;;;;;;15.88;8.68;;;2.80;70.70;;;;;;5091678;27;20047;-80
2022/03/09 08:18:36;;;;;;;13.18;8.80;;;2.90;70.40;;;;;;5081095;28;20057;-79
2022/03/09 08:21:02;;;;;;;13.23;8.02;;;3.00;69.90;;;;;;5117131;27;20047;-80
2022/03/09 08:23:27;;;;;;;12.93;9.35;;;3.10;69.60;;;;;;5115925;27;20039;-79
2022/03/09 08:25:53;;;;;;;12.35;9.52;;;3.20;69.30;;;;;;5109976;27;20031;-79
2022/03/09 08:28:19;;;;;;;15.32;9.30;;;3.30;69.20;;;;;;5081363;27;20146;-79
2022/03/09 08:30:45;;;;;;;13.23;8.43;;;3.40;68.80;;;;;;5120025;27;20047;-79
2022/03/09 08:33:11;;;;;;;17.17;9.73;;;3.60;67.70;;;;;;5115236;27;20130;-81
2022/03/09 08:35:37;;;;;;;12.65;8.32;;;3.70;68.30;;;;;;5082582;27;20560;-80
2022/03/09 08:38:04;;;;;;;12.88;9.15;;;3.80;67.70;;;;;;5118605;27;20502;-79
2022/03/09 08:40:30;;;;;;;12.75;8.38;;;3.80;68.00;;;;;;5118887;27;20435;-80
2022/03/09 08:43:19;;;;;;;11.85;7.97;;;4.00;67.90;;;;;;5118957;27;20066;-79
2022/03/09 08:45:45;;;;;;;14.68;9.25;;;4.10;67.70;;;;;;5103169;27;20044;-79
2022/03/09 08:48:11;;;;;;;12.27;8.77;;;4.10;66.10;;;;;;5112839;27;20043;-79
2022/03/09 08:50:36;;;;;;;14.20;9.07;;;4.30;66.70;;;;;;5132955;27;20050;-78
2022/03/09 08:53:03;;;;;;;12.30;7.82;;;4.40;65.40;;;;;;5099257;27;20035;-79
2022/03/09 08:55:29;;;;;;;11.32;8.13;;;4.50;65.20;;;;;;5133168;27;20043;-79
2022/03/09 08:57:55;;;;;;;11.90;7.63;;;4.60;64.60;;;;;;5133262;27;20495;-79
2022/03/09 09:00:20;;;;;;;12.65;8.73;;;4.60;64.50;;;;;;5133645;27;20123;-79
2022/03/09 09:02:46;;;;;;;13.07;8.38;;;4.70;64.00;;;;;;5133214;27;20046;-79
2022/03/09 09:05:12;;;;;;;14.05;7.80;;;4.80;64.30;;;;;;5116410;27;20043;-80
2022/03/09 09:07:38;;;;;;;12.80;8.15;;;4.90;63.00;;;;;;5116237;28;20039;-80
2022/03/09 09:10:06;;;;;;;12.65;8.32;;;5.00;63.50;;;;;;5116096;28;20064;-79
2022/03/09 09:12:32;;;;;;;13.90;7.63;;;5.10;63.30;;;;;;5133122;27;20042;-78
2022/03/09 09:14:57;;;;;;;11.65;8.10;;;5.20;63.50;;;;;;5133129;27;20047;-79
2022/03/09 09:17:23;;;;;;;11.90;9.05;;;5.30;63.30;;;;;;5133528;27;20138;-79
2022/03/09 09:19:49;;;;;;;12.10;8.23;;;5.40;62.70;;;;;;5133218;28;20054;-79
2022/03/09 09:22:15;;;;;;;12.57;8.27;;;5.50;62.70;;;;;;5132626;28;20046;-80
2022/03/09 09:24:41;;;;;;;13.30;9.25;;;5.60;61.90;;;;;;5099221;28;20035;-80
2022/03/09 09:27:07;;;;;;;11.35;8.20;;;5.70;62.40;;;;;;5133836;28;20487;-80
2022/03/09 09:29:33;;;;;;;14.13;8.77;;;5.80;59.90;;;;;;5099305;27;20036;-80
2022/03/09 09:31:59;;;;;;;12.02;7.95;;;6.00;59.90;;;;;;5120182;27;20031;-80
2022/03/09 09:34:25;;;;;;;13.32;9.00;;;6.10;60.00;;;;;;5137171;27;20035;-80
2022/03/09 09:36:52;;;;;;;13.65;8.93;;;6.20;60.70;;;;;;5119545;27;20039;-80
2022/03/09 09:39:18;;;;;;;12.10;8.68;;;6.40;59.80;;;;;;5136785;27;20066;-80
2022/03/09 09:41:52;;;;;;;11.05;7.97;;;6.50;58.00;;;;;;5136797;27;20039;-80
2022/03/09 09:44:23;;;;;;;14.15;8.55;;;6.50;58.40;;;;;;5136578;27;20092;-79
2022/03/09 09:46:51;;;;;;;13.00;8.55;;;6.70;58.10;;;;;;5136861;27;20043;-80
2022/03/09 09:49:17;;;;;;;11.88;8.75;;;6.80;57.60;;;;;;5136244;27;20043;-79
2022/03/09 09:51:45;;;;;;;14.65;8.50;;;6.90;57.60;;;;;;5136653;27;20035;-80
2022/03/09 09:54:11;;;;;;;12.18;8.32;;;7.00;58.20;;;;;;5119419;27;20621;-80
2022/03/09 09:56:39;;;;;;;13.02;8.80;;;7.00;56.70;;;;;;5136559;27;20121;-80
2022/03/09 09:59:06;;;;;;;12.70;9.23;;;7.10;55.10;;;;;;5153977;27;20039;-79
2022/03/09 10:01:32;;;;;;;13.23;9.02;;;7.20;56.70;;;;;;5119440;27;20050;-80
2022/03/09 10:03:57;;;;;;;11.52;8.60;;;7.30;55.30;;;;;;5136123;27;20046;-79
2022/03/09 10:06:23;;;;;;;14.70;8.73;;;7.50;54.20;;;;;;5136429;27;20039;-79
2022/03/09 10:09:05;;;;;;;12.95;8.23;;;7.60;53.90;;;;;;5102450;27;20135;-80
2022/03/09 10:11:51;;;;;;;12.13;8.25;;;7.60;55.70;;;;;;5136789;27;20035;-79
2022/03/09 10:14:38;;;;;;;16.35;9.13;;;7.70;53.40;;;;;;5135839;27;20069;-79
2022/03/09 10:17:06;;;;;;;12.45;9.00;;;7.80;53.30;;;;;;5136154;27;20047;-79
2022/03/09 10:19:37;;;;;;;15.20;8.88;;;7.90;54.40;;;;;;5136113;27;20039;-79
2022/03/09 10:22:27;;;;;;;12.43;8.43;;;8.00;54.70;;;;;;5136411;27;20403;-79
2022/03/09 10:24:55;;;;;;;13.70;8.77;;;8.20;53.50;;;;;;5118914;27;20043;-80
2022/03/09 10:27:49;;;;;;;11.77;8.25;;;8.30;53.60;;;;;;5118822;27;20039;-80
2022/03/09 10:30:17;;;;;;;12.48;8.82;;;8.40;52.80;;;;;;5136112;27;20074;-80
2022/03/09 10:32:48;;;;;;;12.07;8.65;;;8.50;53.40;;;;;;5118834;27;20035;-80
2022/03/09 10:35:19;;;;;;;12.50;8.43;;;8.60;51.80;;;;;;5118154;27;20039;-79
2022/03/09 10:37:47;;;;;;;16.58;10.30;;;8.70;52.60;;;;;;5119290;27;20074;-79
2022/03/09 10:40:19;;;;;;;11.48;8.65;;;8.90;52.60;;;;;;5152749;27;20035;-79
2022/03/09 10:42:45;;;;;;;10.38;8.73;;;8.90;50.90;;;;;;5134778;27;20064;-80
2022/03/09 10:45:12;;;;;;;13.07;9.40;;;9.10;50.70;;;;;;5135795;27;20039;-80
2022/03/09 10:47:46;;;;;;;13.15;8.73;;;9.20;50.30;;;;;;5118591;27;20360;-79
2022/03/09 10:50:28;;;;;;;13.48;9.05;;;9.30;50.70;;;;;;5135358;27;20035;-80
2022/03/09 10:53:01;;;;;;;13.75;9.45;;;9.50;50.80;;;;;;5135545;27;20031;-79
2022/03/09 10:55:31;;;;;;;10.75;8.40;;;9.60;50.20;;;;;;5135106;27;20043;-80
2022/03/09 10:58:19;;;;;;;10.25;8.40;;;9.80;50.50;;;;;;5118100;27;20058;-80
2022/03/09 11:00:48;;;;;;;10.60;8.52;;;10.00;49.00;;;;;;5117928;27;20042;-80
2022/03/09 11:03:19;;;;;;;11.15;8.43;;;10.20;48.60;;;;;;5118053;27;20043;-80
2022/03/09 11:05:56;;;;;;;13.30;9.23;;;10.30;48.10;;;;;;5135101;27;20152;-81
2022/03/09 11:08:27;;;;;;;15.05;8.93;;;10.40;48.30;;;;;;5101532;27;20046;-80
2022/03/09 11:10:55;;;;;;;12.25;8.75;;;10.50;47.80;;;;;;5134387;27;20043;-80
2022/03/09 11:13:22;;;;;;;10.88;8.45;;;10.60;45.70;;;;;;5134989;27;20055;-80
2022/03/09 11:15:48;;;;;;;12.55;8.90;;;10.80;46.50;;;;;;5117938;27;20039;-81
2022/03/09 11:18:18;;;;;;;12.23;9.27;;;10.90;44.30;;;;;;5100883;27;20503;-79
2022/03/09 11:20:48;;;;;;;11.13;9.00;;;10.90;45.40;;;;;;5135343;27;20042;-80
2022/03/09 11:23:14;;;;;;;14.60;10.25;;;11.10;44.90;;;;;;5139365;27;20039;-79
2022/03/09 11:25:51;;;;;;;12.95;9.23;;;11.20;45.20;;;;;;5119835;27;20039;-81
2022/03/09 11:28:35;;;;;;;11.90;8.70;;;11.30;44.30;;;;;;5134488;27;20039;-79
2022/03/09 11:31:12;;;;;;;11.57;8.40;;;11.40;44.20;;;;;;5134400;27;20047;-79
2022/03/09 11:33:49;;;;;;;12.23;9.40;;;11.50;44.50;;;;;;5116499;27;20047;-80
2022/03/09 11:36:24;;;;;;;14.32;9.65;;;11.50;43.20;;;;;;5117196;27;20485;-80
2022/03/09 11:38:54;;;;;;;11.95;9.40;;;11.60;45.10;;;;;;5117321;27;20035;-79
2022/03/09 11:41:23;;;;;;;11.00;8.75;;;11.70;45.10;;;;;;5134446;27;20031;-79
2022/03/09 11:43:50;;;;;;;11.68;8.77;;;11.90;45.00;;;;;;5134259;27;20491;-80
2022/03/09 11:46:16;;;;;;;11.70;9.48;;;12.00;43.80;;;;;;5134389;27;20035;-79
2022/03/09 11:48:54;;;;;;;14.98;9.60;;;12.00;43.00;;;;;;5134215;27;20037;-80
2022/03/09 11:51:22;;;;;;;12.65;10.52;;;12.00;40.90;;;;;;5117023;27;20099;-80
2022/03/09 11:53:59;;;;;;;14.85;10.52;;;12.30;42.70;;;;;;5151804;27;20062;-80
2022/03/09 11:56:25;;;;;;;13.05;9.82;;;12.50;42.30;;;;;;5151615;27;20134;-80
2022/03/09 11:59:18;;;;;;;15.20;10.18;;;12.50;41.10;;;;;;5134544;27;20530;-79
2022/03/09 12:02:00;;;;;;;13.75;10.40;;;12.50;39.60;;;;;;5101729;27;20039;-80
2022/03/09 12:04:48;;;;;;;14.75;9.90;;;12.60;40.50;;;;;;5133892;27;20042;-80
2022/03/09 12:07:34;;;;;;;12.73;10.25;;;12.70;40.40;;;;;;5116952;27;20039;-79
2022/03/09 12:10:14;;;;;;;13.20;9.52;;;12.80;40.90;;;;;;5133531;27;20046;-79
2022/03/09 12:13:08;;;;;;;14.27;10.05;;;12.90;41.20;;;;;;5133701;27;20031;-79
2022/03/09 12:16:14;;;;;;;13.63;9.57;;;13.00;40.70;;;;;;5115976;27;20502;-79
2022/03/09 12:19:00;;;;;;;12.25;9.35;;;12.90;40.70;;;;;;5133641;27;20059;-79
2022/03/09 12:21:26;;;;;;;14.18;9.40;;;13.10;42.10;;;;;;5133930;27;20070;-79
2022/03/09 12:24:15;;;;;;;12.18;10.20;;;13.20;40.70;;;;;;5133451;27;20483;-79
2022/03/09 12:26:42;;;;;;;12.90;9.98;;;13.50;41.10;;;;;;5120118;27;20039;-80
2022/03/09 12:29:25;;;;;;;13.02;10.23;;;13.50;40.70;;;;;;5116459;27;20047;-79
2022/03/09 12:32:01;;;;;;;13.23;10.57;;;13.60;40.30;;;;;;5116969;27;20043;-79
2022/03/09 12:34:35;;;;;;;13.10;10.10;;;13.70;38.80;;;;;;5133873;27;20035;-79
2022/03/09 12:37:02;;;;;;;13.00;10.50;;;13.60;38.90;;;;;;5133209;27;20035;-79
2022/03/09 12:39:28;;;;;;;19.60;14.40;;;13.80;39.50;;;;;;5133498;27;20054;-80
2022/03/09 12:41:55;;;;;;;13.32;10.75;;;13.90;37.70;;;;;;5133540;27;20391;-80
2022/03/09 12:44:22;;;;;;;13.32;10.40;;;14.00;37.30;;;;;;5116217;27;20384;-79
2022/03/09 12:46:51;;;;;;;15.32;10.85;;;14.00;38.20;;;;;;5133325;27;20050;-79
2022/03/09 12:49:22;;;;;;;13.05;10.82;;;14.10;38.70;;;;;;5133219;27;20444;-79
2022/03/09 12:51:53;;;;;;;13.48;11.10;;;14.20;38.10;;;;;;5133310;27;20123;-79